createdAt,value
2017-07-07T00:01:10.207Z,1011.44
2017-07-07T00:02:20.493Z,1011.36
2017-07-07T00:03:31.026Z,1011.36
2017-07-07T00:04:40.960Z,1011.35
2017-07-07T00:05:51.241Z,1011.29
2017-07-07T00:07:01.501Z,1011.34
2017-07-07T00:08:11.460Z,1011.37
2017-07-07T00:09:21.340Z,1011.39
2017-07-07T00:10:30.973Z,1011.38
2017-07-07T00:11:41.237Z,1011.38
2017-07-07T00:12:51.246Z,1011.39
2017-07-07T00:14:01.509Z,1011.38
2017-07-07T00:15:12.051Z,1011.37
2017-07-07T00:16:21.995Z,1011.41
2017-07-07T00:17:32.245Z,1011.42
2017-07-07T00:18:42.522Z,1011.36
2017-07-07T00:19:52.816Z,1011.33
2017-07-07T00:21:03.321Z,1011.32
2017-07-07T00:22:13.782Z,1011.3
2017-07-07T00:23:24.050Z,1011.31
2017-07-07T00:24:34.297Z,1011.31
2017-07-07T00:25:44.564Z,1011.29
2017-07-07T00:26:54.767Z,1011.29
2017-07-07T00:28:05.021Z,1011.33
2017-07-07T00:29:15.274Z,1011.31
2017-07-07T00:30:25.241Z,1011.33
2017-07-07T00:31:35.529Z,1011.31
2017-07-07T00:32:46.056Z,1011.36
2017-07-07T00:33:56.350Z,1011.32
2017-07-07T00:35:06.297Z,1011.31
2017-07-07T00:36:16.584Z,1011.3
2017-07-07T00:37:26.863Z,1011.28
2017-07-07T00:38:37.124Z,1011.28
2017-07-07T00:39:47.422Z,1011.24
2017-07-07T00:40:57.696Z,1011.24
2017-07-07T00:42:08.035Z,1011.23
2017-07-07T00:43:18.317Z,1011.23
2017-07-07T00:44:28.578Z,1011.26
2017-07-07T00:45:38.536Z,1011.23
2017-07-07T00:46:48.811Z,1011.23
2017-07-07T00:47:59.090Z,1011.22
2017-07-07T00:49:09.374Z,1011.2
2017-07-07T00:50:19.938Z,1011.14
2017-07-07T00:51:30.204Z,1011.15
2017-07-07T00:52:40.173Z,1011.15
2017-07-07T00:53:49.805Z,1011.1
2017-07-07T00:54:59.750Z,1011.11
2017-07-07T00:56:10.253Z,1011.03
2017-07-07T00:57:20.511Z,1011.01
2017-07-07T00:58:30.784Z,1011.02
2017-07-07T00:59:41.038Z,1010.95
2017-07-07T01:00:51.302Z,1010.94
2017-07-07T01:02:01.834Z,1010.95
2017-07-07T01:03:12.096Z,1010.93
2017-07-07T01:04:22.441Z,1010.96
2017-07-07T01:05:32.699Z,1010.93
2017-07-07T01:06:42.996Z,1010.9
2017-07-07T01:07:53.513Z,1010.87
2017-07-07T01:09:03.792Z,1010.84
2017-07-07T01:10:14.057Z,1010.74
2017-07-07T01:11:24.022Z,1010.72
2017-07-07T01:12:34.286Z,1010.7
2017-07-07T01:13:44.847Z,1010.63
2017-07-07T01:14:54.788Z,1010.6
2017-07-07T01:16:05.036Z,1010.57
2017-07-07T01:17:15.301Z,1010.53
2017-07-07T01:18:25.566Z,1010.52
2017-07-07T01:19:35.773Z,1010.54
2017-07-07T01:20:46.038Z,1010.53
2017-07-07T01:21:55.989Z,1010.53
2017-07-07T01:23:06.462Z,1010.53
2017-07-07T01:24:16.418Z,1010.45
2017-07-07T01:25:26.979Z,1010.48
2017-07-07T01:26:37.242Z,1010.44
2017-07-07T01:27:47.196Z,1010.45
2017-07-07T01:28:56.847Z,1010.41
2017-07-07T01:30:06.180Z,1010.41
2017-07-07T01:31:16.718Z,1010.4
2017-07-07T01:32:26.986Z,1010.42
2017-07-07T01:33:37.253Z,1010.37
2017-07-07T01:34:47.522Z,1010.31
2017-07-07T01:35:57.795Z,1010.29
2017-07-07T01:37:08.311Z,1010.24
2017-07-07T01:38:18.262Z,1010.24
2017-07-07T01:39:28.530Z,1010.23
2017-07-07T01:40:38.789Z,1010.19
2017-07-07T01:41:49.052Z,1010.23
2017-07-07T01:42:59.569Z,1010.24
2017-07-07T01:44:09.839Z,1010.22
2017-07-07T01:45:20.107Z,1010.18
2017-07-07T01:46:30.047Z,1010.22
2017-07-07T01:47:40.318Z,1010.21
2017-07-07T01:48:50.841Z,1010.19
2017-07-07T01:50:00.790Z,1010.18
2017-07-07T01:51:11.056Z,1010.13
2017-07-07T01:52:21.323Z,1010.11
2017-07-07T01:53:31.280Z,1010.15
2017-07-07T01:54:41.798Z,1010.1
2017-07-07T01:55:52.057Z,1010.06
2017-07-07T01:57:02.014Z,1010.05
2017-07-07T01:58:11.963Z,1010.03
2017-07-07T01:59:22.215Z,1010.04
2017-07-07T02:00:32.744Z,1010.02
2017-07-07T02:01:43.030Z,1010.02
2017-07-07T02:02:53.300Z,1010.05
2017-07-07T02:04:03.570Z,1010
2017-07-07T02:05:13.836Z,1010.01
2017-07-07T02:06:24.346Z,1010.02
2017-07-07T02:07:34.615Z,1010.03
2017-07-07T02:08:44.869Z,1010.01
2017-07-07T02:09:54.838Z,1010.03
2017-07-07T02:11:05.109Z,1010
2017-07-07T02:12:15.657Z,1010
2017-07-07T02:13:25.915Z,1010.06
2017-07-07T02:14:36.192Z,1010
2017-07-07T02:15:46.462Z,1009.97
2017-07-07T02:16:56.724Z,1009.92
2017-07-07T02:18:07.303Z,1009.89
2017-07-07T02:19:17.583Z,1009.87
2017-07-07T02:20:27.863Z,1009.87
2017-07-07T02:21:38.140Z,1009.81
2017-07-07T02:22:48.405Z,1009.81
2017-07-07T02:23:58.660Z,1009.82
2017-07-07T02:25:08.919Z,1009.8
2017-07-07T02:26:19.197Z,1009.78
2017-07-07T02:27:29.152Z,1009.8
2017-07-07T02:28:39.407Z,1009.78
2017-07-07T02:29:49.614Z,1009.8
2017-07-07T02:30:59.897Z,1009.78
2017-07-07T02:32:10.161Z,1009.74
2017-07-07T02:33:20.431Z,1009.73
2017-07-07T02:34:30.690Z,1009.73
2017-07-07T02:35:41.206Z,1009.74
2017-07-07T02:36:51.472Z,1009.73
2017-07-07T02:38:01.425Z,1009.74
2017-07-07T02:39:11.368Z,1009.72
2017-07-07T02:40:21.335Z,1009.71
2017-07-07T02:41:31.534Z,1009.68
2017-07-07T02:42:41.798Z,1009.67
2017-07-07T02:43:51.749Z,1009.7
2017-07-07T02:45:02.024Z,1009.62
2017-07-07T02:46:12.279Z,1009.62
2017-07-07T02:47:22.794Z,1009.62
2017-07-07T02:48:33.058Z,1009.6
2017-07-07T02:49:43.317Z,1009.59
2017-07-07T02:50:53.591Z,1009.58
2017-07-07T02:52:03.880Z,1009.53
2017-07-07T02:53:14.413Z,1009.53
2017-07-07T02:54:24.671Z,1009.45
2017-07-07T02:55:34.941Z,1009.41
2017-07-07T02:56:45.219Z,1009.41
2017-07-07T02:57:55.490Z,1009.34
2017-07-07T02:59:05.693Z,1009.34
2017-07-07T03:00:15.946Z,1009.31
2017-07-07T03:01:26.208Z,1009.31
2017-07-07T03:02:36.173Z,1009.2
2017-07-07T03:03:46.131Z,1009.19
2017-07-07T03:04:56.646Z,1009.21
2017-07-07T03:06:06.914Z,1009.18
2017-07-07T03:07:17.191Z,1009.19
2017-07-07T03:08:27.163Z,1009.17
2017-07-07T03:09:37.431Z,1009.2
2017-07-07T03:10:47.965Z,1009.2
2017-07-07T03:11:58.235Z,1009.17
2017-07-07T03:13:08.507Z,1009.17
2017-07-07T03:14:18.150Z,1009.12
2017-07-07T03:15:28.414Z,1009.13
2017-07-07T03:16:38.628Z,1009.06
2017-07-07T03:17:48.906Z,1009.06
2017-07-07T03:18:58.876Z,1009.02
2017-07-07T03:20:09.156Z,1009.09
2017-07-07T03:21:19.422Z,1009.06
2017-07-07T03:22:29.615Z,1009.09
2017-07-07T03:23:39.875Z,1009.1
2017-07-07T03:24:50.132Z,1009.06
2017-07-07T03:26:00.397Z,1009.06
2017-07-07T03:27:10.356Z,1009.07
2017-07-07T03:28:20.941Z,1008.99
2017-07-07T03:29:31.218Z,1009.05
2017-07-07T03:30:41.485Z,1009.07
2017-07-07T03:31:51.760Z,1009.11
2017-07-07T03:33:02.037Z,1009.1
2017-07-07T03:34:11.911Z,1009.1
2017-07-07T03:35:22.157Z,1009.15
2017-07-07T03:36:32.426Z,1009.11
2017-07-07T03:37:42.700Z,1009.19
2017-07-07T03:38:52.338Z,1009.18
2017-07-07T03:40:02.862Z,1009.13
2017-07-07T03:41:13.124Z,1009.14
2017-07-07T03:42:23.078Z,1009.1
2017-07-07T03:43:33.399Z,1009.13
2017-07-07T03:44:43.030Z,1009.12
2017-07-07T03:45:53.548Z,1009.12
2017-07-07T03:47:03.805Z,1009.12
2017-07-07T03:48:14.062Z,1009.15
2017-07-07T03:49:24.333Z,1009.18
2017-07-07T03:50:34.612Z,1009.14
2017-07-07T03:51:45.118Z,1009.08
2017-07-07T03:52:55.376Z,1009.1
2017-07-07T03:54:05.333Z,1009.11
2017-07-07T03:55:15.590Z,1009.09
2017-07-07T03:56:25.856Z,1009.06
2017-07-07T03:57:36.047Z,1009.14
2017-07-07T03:58:46.323Z,1009.07
2017-07-07T03:59:56.306Z,1009.08
2017-07-07T04:01:06.569Z,1009.04
2017-07-07T04:02:16.827Z,1009.01
2017-07-07T04:03:27.348Z,1009.04
2017-07-07T04:04:37.303Z,1009
2017-07-07T04:05:47.254Z,1008.97
2017-07-07T04:06:57.216Z,1009.03
2017-07-07T04:08:07.462Z,1009
2017-07-07T04:09:17.987Z,1008.95
2017-07-07T04:10:28.246Z,1009
2017-07-07T04:11:38.206Z,1008.97
2017-07-07T04:12:48.472Z,1008.89
2017-07-07T04:13:58.743Z,1008.91
2017-07-07T04:15:08.951Z,1008.86
2017-07-07T04:16:18.901Z,1008.87
2017-07-07T04:17:28.860Z,1008.89
2017-07-07T04:18:39.133Z,1008.88
2017-07-07T04:19:49.417Z,1008.86
2017-07-07T04:20:59.925Z,1008.87
2017-07-07T04:22:10.194Z,1008.84
2017-07-07T04:23:20.458Z,1008.87
2017-07-07T04:24:30.713Z,1008.9
2017-07-07T04:25:40.981Z,1008.89
2017-07-07T04:26:51.531Z,1008.86
2017-07-07T04:28:01.794Z,1008.97
2017-07-07T04:29:12.275Z,1008.89
2017-07-07T04:30:22.532Z,1008.87
2017-07-07T04:31:32.487Z,1008.9
2017-07-07T04:32:42.999Z,1008.87
2017-07-07T04:33:53.020Z,1008.87
2017-07-07T04:35:03.295Z,1008.85
2017-07-07T04:36:13.566Z,1008.78
2017-07-07T04:37:23.831Z,1008.8
2017-07-07T04:38:34.023Z,1008.82
2017-07-07T04:39:44.277Z,1008.84
2017-07-07T04:40:54.552Z,1008.8
2017-07-07T04:42:04.519Z,1008.77
2017-07-07T04:43:14.808Z,1008.76
2017-07-07T04:44:25.325Z,1008.77
2017-07-07T04:45:35.608Z,1008.81
2017-07-07T04:46:45.881Z,1008.78
2017-07-07T04:47:56.144Z,1008.78
2017-07-07T04:49:06.450Z,1008.75
2017-07-07T04:50:16.955Z,1008.73
2017-07-07T04:51:26.902Z,1008.76
2017-07-07T04:52:37.169Z,1008.83
2017-07-07T04:53:47.450Z,1008.8
2017-07-07T04:54:57.725Z,1008.83
2017-07-07T04:56:08.251Z,1008.81
2017-07-07T04:57:18.520Z,1008.83
2017-07-07T04:58:28.803Z,1008.79
2017-07-07T04:59:39.051Z,1008.73
2017-07-07T05:00:49.000Z,1008.74
2017-07-07T05:01:59.506Z,1008.77
2017-07-07T05:03:09.479Z,1008.79
2017-07-07T05:04:19.752Z,1008.78
2017-07-07T05:05:30.028Z,1008.75
2017-07-07T05:06:39.988Z,1008.72
2017-07-07T05:07:50.510Z,1008.66
2017-07-07T05:09:00.787Z,1008.67
2017-07-07T05:10:11.038Z,1008.66
2017-07-07T05:11:21.311Z,1008.71
2017-07-07T05:12:31.588Z,1008.73
2017-07-07T05:13:42.153Z,1008.73
2017-07-07T05:14:52.431Z,1008.73
2017-07-07T05:16:02.702Z,1008.72
2017-07-07T05:17:12.965Z,1008.78
2017-07-07T05:18:23.243Z,1008.79
2017-07-07T05:19:33.494Z,1008.81
2017-07-07T05:20:43.442Z,1008.79
2017-07-07T05:21:53.714Z,1008.89
2017-07-07T05:23:03.972Z,1008.88
2017-07-07T05:24:13.915Z,1008.82
2017-07-07T05:25:24.159Z,1008.81
2017-07-07T05:26:34.418Z,1008.84
2017-07-07T05:27:44.690Z,1008.8
2017-07-07T05:28:54.653Z,1008.76
2017-07-07T05:30:04.300Z,1008.77
2017-07-07T05:31:14.507Z,1008.73
2017-07-07T05:32:24.760Z,1008.73
2017-07-07T05:33:35.028Z,1008.67
2017-07-07T05:34:45.010Z,1008.69
2017-07-07T05:35:54.966Z,1008.68
2017-07-07T05:37:05.477Z,1008.73
2017-07-07T05:38:15.737Z,1008.66
2017-07-07T05:39:25.703Z,1008.62
2017-07-07T05:40:35.988Z,1008.62
2017-07-07T05:41:46.265Z,1008.59
2017-07-07T05:42:56.794Z,1008.55
2017-07-07T05:44:06.741Z,1008.57
2017-07-07T05:45:16.701Z,1008.59
2017-07-07T05:46:26.981Z,1008.59
2017-07-07T05:47:37.257Z,1008.63
2017-07-07T05:48:47.815Z,1008.68
2017-07-07T05:49:58.103Z,1008.67
2017-07-07T05:51:08.386Z,1008.72
2017-07-07T05:52:18.700Z,1008.67
2017-07-07T05:53:28.978Z,1008.6
2017-07-07T05:54:39.655Z,1008.52
2017-07-07T05:55:49.936Z,1008.55
2017-07-07T05:57:00.216Z,1008.45
2017-07-07T05:58:10.511Z,1008.49
2017-07-07T05:59:20.141Z,1008.47
2017-07-07T06:00:30.676Z,1008.49
2017-07-07T06:01:40.942Z,1008.45
2017-07-07T06:02:50.987Z,1008.45
2017-07-07T06:04:01.249Z,1008.45
2017-07-07T06:05:11.207Z,1008.43
2017-07-07T06:06:21.459Z,1008.45
2017-07-07T06:07:31.728Z,1008.52
2017-07-07T06:08:41.998Z,1008.51
2017-07-07T06:09:52.250Z,1008.54
2017-07-07T06:11:02.540Z,1008.52
2017-07-07T06:12:13.119Z,1008.55
2017-07-07T06:13:23.383Z,1008.54
2017-07-07T06:14:33.656Z,1008.54
2017-07-07T06:15:43.628Z,1008.52
2017-07-07T06:16:53.915Z,1008.56
2017-07-07T06:18:04.500Z,1008.53
2017-07-07T06:19:14.129Z,1008.56
2017-07-07T06:20:24.072Z,1008.5
2017-07-07T06:21:34.036Z,1008.48
2017-07-07T06:22:44.346Z,1008.45
2017-07-07T06:23:54.919Z,1008.49
2017-07-07T06:25:05.183Z,1008.44
2017-07-07T06:26:15.156Z,1008.41
2017-07-07T06:27:25.093Z,1008.39
2017-07-07T06:28:35.057Z,1008.33
2017-07-07T06:29:45.263Z,1008.31
2017-07-07T06:30:55.534Z,1008.24
2017-07-07T06:32:05.506Z,1008.25
2017-07-07T06:33:15.145Z,1008.24
2017-07-07T06:34:25.418Z,1008.19
2017-07-07T06:35:35.659Z,1008.17
2017-07-07T06:36:45.933Z,1008.08
2017-07-07T06:37:56.202Z,1008
2017-07-07T06:39:06.479Z,1007.99
2017-07-07T06:40:17.078Z,1008
2017-07-07T06:41:27.660Z,1008.06
2017-07-07T06:42:37.954Z,1008.04
2017-07-07T06:43:47.921Z,1008.05
2017-07-07T06:44:58.186Z,1008.02
2017-07-07T06:46:08.515Z,1008.02
2017-07-07T06:47:18.801Z,1008
2017-07-07T06:48:29.134Z,1007.98
2017-07-07T06:49:39.406Z,1008.04
2017-07-07T06:50:49.682Z,1007.98
2017-07-07T06:51:59.659Z,1007.93
2017-07-07T06:53:10.253Z,1007.92
2017-07-07T06:54:20.593Z,1007.95
2017-07-07T06:55:30.874Z,1007.94
2017-07-07T06:56:41.165Z,1007.92
2017-07-07T06:57:51.135Z,1007.85
2017-07-07T06:59:01.718Z,1007.82
2017-07-07T07:00:12.268Z,1007.77
2017-07-07T07:01:22.564Z,1007.78
2017-07-07T07:02:32.539Z,1007.73
2017-07-07T07:03:42.811Z,1007.74
2017-07-07T07:04:53.058Z,1007.74
2017-07-07T07:06:03.010Z,1007.76
2017-07-07T07:07:12.969Z,1007.85
2017-07-07T07:08:22.942Z,1007.9
2017-07-07T07:09:33.220Z,1007.99
2017-07-07T07:10:43.799Z,1008.04
2017-07-07T07:11:54.091Z,1008.04
2017-07-07T07:13:04.076Z,1008
2017-07-07T07:14:14.341Z,1007.98
2017-07-07T07:15:24.318Z,1007.97
2017-07-07T07:16:34.586Z,1007.9
2017-07-07T07:17:44.870Z,1007.92
2017-07-07T07:18:54.830Z,1007.9
2017-07-07T07:20:04.783Z,1007.95
2017-07-07T07:21:15.078Z,1007.98
2017-07-07T07:22:25.024Z,1007.96
2017-07-07T07:23:34.965Z,1007.89
2017-07-07T07:24:45.230Z,1007.83
2017-07-07T07:25:55.502Z,1007.82
2017-07-07T07:27:05.781Z,1007.85
2017-07-07T07:28:16.413Z,1007.89
2017-07-07T07:29:26.702Z,1007.95
2017-07-07T07:30:36.653Z,1007.96
2017-07-07T07:31:46.954Z,1007.98
2017-07-07T07:32:57.222Z,1008.05
2017-07-07T07:34:07.809Z,1008.11
2017-07-07T07:35:18.091Z,1008.11
2017-07-07T07:36:28.384Z,1008.18
2017-07-07T07:37:38.729Z,1008.2
2017-07-07T07:38:49.008Z,1008.2
2017-07-07T07:39:59.528Z,1008.18
2017-07-07T07:41:09.498Z,1008.23
2017-07-07T07:42:19.792Z,1008.23
2017-07-07T07:43:30.058Z,1008.22
2017-07-07T07:44:40.025Z,1008.16
2017-07-07T07:45:50.248Z,1008.11
2017-07-07T07:47:00.514Z,1008.11
2017-07-07T07:48:10.864Z,1008.11
2017-07-07T07:49:21.130Z,1008.15
2017-07-07T07:50:31.394Z,1008.17
2017-07-07T07:51:41.922Z,1008.17
2017-07-07T07:52:52.196Z,1008.17
2017-07-07T07:54:02.482Z,1008.21
2017-07-07T07:55:12.798Z,1008.2
2017-07-07T07:56:23.105Z,1008.23
2017-07-07T07:57:33.359Z,1008.23
2017-07-07T07:58:43.326Z,1008.22
2017-07-07T07:59:53.603Z,1008.25
2017-07-07T08:01:03.874Z,1008.28
2017-07-07T08:02:13.835Z,1008.28
2017-07-07T08:03:24.399Z,1008.3
2017-07-07T08:04:34.353Z,1008.28
2017-07-07T08:05:44.633Z,1008.29
2017-07-07T08:06:54.884Z,1008.22
2017-07-07T08:08:04.862Z,1008.26
2017-07-07T08:09:15.122Z,1008.29
2017-07-07T08:10:25.409Z,1008.32
2017-07-07T08:11:35.368Z,1008.35
2017-07-07T08:12:45.023Z,1008.31
2017-07-07T08:13:55.333Z,1008.29
2017-07-07T08:15:05.600Z,1008.28
2017-07-07T08:16:15.886Z,1008.29
2017-07-07T08:17:26.142Z,1008.32
2017-07-07T08:18:35.781Z,1008.28
2017-07-07T08:19:46.059Z,1008.3
2017-07-07T08:20:56.289Z,1008.3
2017-07-07T08:22:06.229Z,1008.33
2017-07-07T08:23:16.517Z,1008.33
2017-07-07T08:24:26.463Z,1008.41
2017-07-07T08:25:36.411Z,1008.39
2017-07-07T08:26:46.696Z,1008.45
2017-07-07T08:27:56.948Z,1008.49
2017-07-07T08:29:07.242Z,1008.52
2017-07-07T08:30:17.216Z,1008.53
2017-07-07T08:31:27.488Z,1008.54
2017-07-07T08:32:38.084Z,1008.56
2017-07-07T08:33:48.395Z,1008.53
2017-07-07T08:34:58.684Z,1008.54
2017-07-07T08:36:08.949Z,1008.54
2017-07-07T08:37:18.905Z,1008.61
2017-07-07T08:38:29.135Z,1008.64
2017-07-07T08:39:39.425Z,1008.69
2017-07-07T08:40:49.391Z,1008.66
2017-07-07T08:41:59.341Z,1008.71
2017-07-07T08:43:09.635Z,1008.69
2017-07-07T08:44:20.155Z,1008.72
2017-07-07T08:45:30.431Z,1008.73
2017-07-07T08:46:40.380Z,1008.77
2017-07-07T08:47:50.395Z,1008.82
2017-07-07T08:49:00.684Z,1008.82
2017-07-07T08:50:10.940Z,1008.84
2017-07-07T08:51:21.213Z,1008.88
2017-07-07T08:52:31.163Z,1008.93
2017-07-07T08:53:41.446Z,1008.95
2017-07-07T08:54:51.691Z,1008.94
2017-07-07T08:56:02.286Z,1008.9
2017-07-07T08:57:12.588Z,1008.89
2017-07-07T08:58:22.882Z,1008.83
2017-07-07T08:59:32.845Z,1008.8
2017-07-07T09:00:42.815Z,1008.76
2017-07-07T09:01:53.394Z,1008.8
2017-07-07T09:03:03.660Z,1008.79
2017-07-07T09:04:13.649Z,1008.76
2017-07-07T09:05:23.928Z,1008.72
2017-07-07T09:06:34.191Z,1008.77
2017-07-07T09:07:44.462Z,1008.74
2017-07-07T09:08:54.739Z,1008.75
2017-07-07T09:10:05.015Z,1008.76
2017-07-07T09:11:15.295Z,1008.74
2017-07-07T09:12:25.550Z,1008.71
2017-07-07T09:13:36.128Z,1008.72
2017-07-07T09:14:46.433Z,1008.71
2017-07-07T09:15:56.717Z,1008.68
2017-07-07T09:17:06.995Z,1008.66
2017-07-07T09:18:16.963Z,1008.73
2017-07-07T09:19:27.493Z,1008.75
2017-07-07T09:20:37.775Z,1008.67
2017-07-07T09:21:47.735Z,1008.69
2017-07-07T09:22:58.031Z,1008.66
2017-07-07T09:24:08.525Z,1008.66
2017-07-07T09:25:19.099Z,1008.67
2017-07-07T09:26:29.364Z,1008.58
2017-07-07T09:27:39.337Z,1008.5
2017-07-07T09:28:49.599Z,1008.54
2017-07-07T09:29:59.869Z,1008.54
2017-07-07T09:31:10.414Z,1008.5
2017-07-07T09:32:20.366Z,1008.5
2017-07-07T09:33:30.624Z,1008.48
2017-07-07T09:34:40.576Z,1008.44
2017-07-07T09:35:50.880Z,1008.4
2017-07-07T09:37:01.084Z,1008.45
2017-07-07T09:38:11.358Z,1008.4
2017-07-07T09:39:20.996Z,1008.39
2017-07-07T09:40:30.958Z,1008.42
2017-07-07T09:41:40.911Z,1008.47
2017-07-07T09:42:51.184Z,1008.46
2017-07-07T09:44:01.565Z,1008.48
2017-07-07T09:45:11.703Z,1008.45
2017-07-07T09:46:21.660Z,1008.49
2017-07-07T09:47:31.949Z,1008.42
2017-07-07T09:48:42.491Z,1008.38
2017-07-07T09:49:52.773Z,1008.38
2017-07-07T09:51:03.061Z,1008.35
2017-07-07T09:52:13.367Z,1008.32
2017-07-07T09:53:23.631Z,1008.32
2017-07-07T09:54:34.224Z,1008.37
2017-07-07T09:55:44.509Z,1008.41
2017-07-07T09:56:54.804Z,1008.42
2017-07-07T09:58:04.768Z,1008.44
2017-07-07T09:59:14.699Z,1008.37
2017-07-07T10:00:25.244Z,1008.39
2017-07-07T10:01:35.205Z,1008.36
2017-07-07T10:02:45.184Z,1008.34
2017-07-07T10:03:55.456Z,1008.32
2017-07-07T10:05:05.734Z,1008.31
2017-07-07T10:06:16.294Z,1008.3
2017-07-07T10:07:26.261Z,1008.3
2017-07-07T10:08:36.528Z,1008.29
2017-07-07T10:09:46.822Z,1008.3
2017-07-07T10:10:57.110Z,1008.32
2017-07-07T10:12:07.658Z,1008.29
2017-07-07T10:13:17.620Z,1008.27
2017-07-07T10:14:27.904Z,1008.28
2017-07-07T10:15:37.924Z,1008.33
2017-07-07T10:16:47.895Z,1008.31
2017-07-07T10:17:58.422Z,1008.31
2017-07-07T10:19:08.695Z,1008.26
2017-07-07T10:20:18.965Z,1008.31
2017-07-07T10:21:28.920Z,1008.28
2017-07-07T10:22:39.227Z,1008.28
2017-07-07T10:23:49.809Z,1008.27
2017-07-07T10:25:00.086Z,1008.3
2017-07-07T10:26:10.393Z,1008.35
2017-07-07T10:27:20.681Z,1008.33
2017-07-07T10:28:30.939Z,1008.35
2017-07-07T10:29:41.466Z,1008.36
2017-07-07T10:30:51.738Z,1008.34
2017-07-07T10:32:02.020Z,1008.35
2017-07-07T10:33:11.991Z,1008.32
2017-07-07T10:34:22.230Z,1008.3
2017-07-07T10:35:32.494Z,1008.3
2017-07-07T10:36:42.774Z,1008.27
2017-07-07T10:37:53.075Z,1008.33
2017-07-07T10:39:03.354Z,1008.32
2017-07-07T10:40:13.666Z,1008.24
2017-07-07T10:41:24.251Z,1008.29
2017-07-07T10:42:34.559Z,1008.24
2017-07-07T10:43:44.874Z,1008.25
2017-07-07T10:44:54.850Z,1008.19
2017-07-07T10:46:05.144Z,1008.22
2017-07-07T10:47:15.660Z,1008.27
2017-07-07T10:48:25.942Z,1008.24
2017-07-07T10:49:36.215Z,1008.23
2017-07-07T10:50:46.503Z,1008.18
2017-07-07T10:51:56.792Z,1008.16
2017-07-07T10:53:07.368Z,1008.13
2017-07-07T10:54:17.334Z,1008.18
2017-07-07T10:55:27.619Z,1008.19
2017-07-07T10:56:37.644Z,1008.16
2017-07-07T10:57:47.961Z,1008.1
2017-07-07T10:58:58.200Z,1008.12
2017-07-07T11:00:08.193Z,1008.12
2017-07-07T11:01:18.505Z,1008.11
2017-07-07T11:02:28.162Z,1008.16
2017-07-07T11:03:38.138Z,1008.08
2017-07-07T11:04:48.719Z,1008.06
2017-07-07T11:05:59.004Z,1008.06
2017-07-07T11:07:09.277Z,1008.02
2017-07-07T11:08:19.261Z,1008.05
2017-07-07T11:09:29.562Z,1008.06
2017-07-07T11:10:40.091Z,1008.05
2017-07-07T11:11:50.060Z,1008.05
2017-07-07T11:13:00.339Z,1008.02
2017-07-07T11:14:10.618Z,1008.02
2017-07-07T11:15:20.891Z,1008.01
2017-07-07T11:16:31.126Z,1007.97
2017-07-07T11:17:41.086Z,1007.96
2017-07-07T11:18:51.047Z,1007.99
2017-07-07T11:20:01.344Z,1008
2017-07-07T11:21:11.314Z,1008.01
2017-07-07T11:22:21.587Z,1007.95
2017-07-07T11:23:31.890Z,1007.96
2017-07-07T11:24:42.180Z,1008.02
2017-07-07T11:25:52.495Z,1008.03
2017-07-07T11:27:02.802Z,1008.02
2017-07-07T11:28:13.030Z,1008
2017-07-07T11:29:23.321Z,1008.05
2017-07-07T11:30:33.301Z,1007.96
2017-07-07T11:31:42.964Z,1007.99
2017-07-07T11:32:53.276Z,1007.99
2017-07-07T11:34:03.821Z,1008.02
2017-07-07T11:35:14.119Z,1007.94
2017-07-07T11:36:24.415Z,1007.92
2017-07-07T11:37:34.710Z,1007.99
2017-07-07T11:38:45.042Z,1007.98
2017-07-07T11:39:55.629Z,1008.04
2017-07-07T11:41:05.924Z,1008.08
2017-07-07T11:42:15.894Z,1008.06
2017-07-07T11:43:26.386Z,1008.07
2017-07-07T11:44:36.678Z,1008.01
2017-07-07T11:45:46.965Z,1007.98
2017-07-07T11:46:57.284Z,1008.03
2017-07-07T11:48:07.580Z,1008.04
2017-07-07T11:49:17.874Z,1008.02
2017-07-07T11:50:28.170Z,1008
2017-07-07T11:51:38.780Z,1008.03
2017-07-07T11:52:48.434Z,1008.02
2017-07-07T11:53:58.725Z,1008
2017-07-07T11:55:08.712Z,1007.97
2017-07-07T11:56:18.670Z,1007.97
2017-07-07T11:57:28.957Z,1007.92
2017-07-07T11:58:39.256Z,1007.91
2017-07-07T11:59:49.228Z,1007.94
2017-07-07T12:00:59.529Z,1007.97
2017-07-07T12:02:09.896Z,1007.94
2017-07-07T12:03:20.180Z,1007.87
2017-07-07T12:04:30.484Z,1007.93
2017-07-07T12:05:40.481Z,1007.96
2017-07-07T12:06:50.746Z,1007.96
2017-07-07T12:08:01.051Z,1007.97
2017-07-07T12:09:11.660Z,1007.97
2017-07-07T12:10:21.954Z,1007.96
2017-07-07T12:11:31.922Z,1007.96
2017-07-07T12:12:41.564Z,1007.92
2017-07-07T12:13:51.870Z,1007.88
2017-07-07T12:15:02.484Z,1007.91
2017-07-07T12:16:12.469Z,1007.87
2017-07-07T12:17:22.764Z,1007.86
2017-07-07T12:18:32.746Z,1007.82
2017-07-07T12:19:43.062Z,1007.8
2017-07-07T12:20:53.601Z,1007.79
2017-07-07T12:22:03.895Z,1007.81
2017-07-07T12:23:14.288Z,1007.79
2017-07-07T12:24:24.258Z,1007.77
2017-07-07T12:25:34.536Z,1007.77
2017-07-07T12:26:44.802Z,1007.78
2017-07-07T12:27:55.137Z,1007.72
2017-07-07T12:29:05.413Z,1007.71
2017-07-07T12:30:15.699Z,1007.7
2017-07-07T12:31:25.685Z,1007.81
2017-07-07T12:32:36.232Z,1007.76
2017-07-07T12:33:46.198Z,1007.77
2017-07-07T12:34:56.470Z,1007.68
2017-07-07T12:36:06.757Z,1007.72
2017-07-07T12:37:17.052Z,1007.75
2017-07-07T12:38:27.319Z,1007.77
2017-07-07T12:39:37.615Z,1007.73
2017-07-07T12:40:47.937Z,1007.75
2017-07-07T12:41:57.898Z,1007.77
2017-07-07T12:43:08.182Z,1007.79
2017-07-07T12:44:18.698Z,1007.74
2017-07-07T12:45:28.661Z,1007.85
2017-07-07T12:46:38.624Z,1007.86
2017-07-07T12:47:48.920Z,1007.8
2017-07-07T12:48:59.198Z,1007.76
2017-07-07T12:50:09.777Z,1007.75
2017-07-07T12:51:20.093Z,1007.8
2017-07-07T12:52:30.370Z,1007.79
2017-07-07T12:53:40.337Z,1007.76
2017-07-07T12:54:50.629Z,1007.75
2017-07-07T12:56:00.834Z,1007.75
2017-07-07T12:57:11.126Z,1007.84
2017-07-07T12:58:21.100Z,1007.83
2017-07-07T12:59:31.061Z,1007.87
2017-07-07T13:00:41.347Z,1007.8
2017-07-07T13:01:51.613Z,1007.81
2017-07-07T13:03:01.913Z,1007.85
2017-07-07T13:04:12.195Z,1007.81
2017-07-07T13:05:22.536Z,1007.71
2017-07-07T13:06:32.827Z,1007.7
2017-07-07T13:07:43.430Z,1007.73
2017-07-07T13:08:53.724Z,1007.68
2017-07-07T13:10:04.011Z,1007.76
2017-07-07T13:11:14.318Z,1007.69
2017-07-07T13:12:24.591Z,1007.68
2017-07-07T13:13:35.204Z,1007.74
2017-07-07T13:14:45.495Z,1007.58
2017-07-07T13:15:55.781Z,1007.57
2017-07-07T13:17:06.068Z,1007.61
2017-07-07T13:18:16.338Z,1007.57
2017-07-07T13:19:26.861Z,1007.51
2017-07-07T13:20:37.149Z,1007.52
2017-07-07T13:21:47.441Z,1007.49
2017-07-07T13:22:57.417Z,1007.48
2017-07-07T13:24:07.374Z,1007.51
2017-07-07T13:25:17.642Z,1007.45
2017-07-07T13:26:27.618Z,1007.47
2017-07-07T13:27:37.914Z,1007.44
2017-07-07T13:28:47.572Z,1007.44
2017-07-07T13:29:57.850Z,1007.45
2017-07-07T13:31:08.115Z,1007.44
2017-07-07T13:32:18.089Z,1007.44
2017-07-07T13:33:28.372Z,1007.44
2017-07-07T13:34:38.021Z,1007.37
2017-07-07T13:35:47.997Z,1007.29
2017-07-07T13:36:58.221Z,1007.28
2017-07-07T13:38:08.502Z,1007.3
2017-07-07T13:39:18.786Z,1007.27
2017-07-07T13:40:29.110Z,1007.24
2017-07-07T13:41:39.105Z,1007.17
2017-07-07T13:42:49.749Z,1007.22
2017-07-07T13:43:59.728Z,1007.18
2017-07-07T13:45:09.691Z,1007.14
2017-07-07T13:46:19.984Z,1007.16
2017-07-07T13:47:30.021Z,1007.12
2017-07-07T13:48:40.607Z,1007.13
2017-07-07T13:49:50.881Z,1007.19
2017-07-07T13:51:00.851Z,1007.21
2017-07-07T13:52:11.122Z,1007.23
2017-07-07T13:53:21.457Z,1007.23
2017-07-07T13:54:32.012Z,1007.21
2017-07-07T13:55:41.981Z,1007.23
2017-07-07T13:56:52.272Z,1007.13
2017-07-07T13:58:02.562Z,1007.04
2017-07-07T13:59:12.846Z,1007.14
2017-07-07T14:00:23.076Z,1007.15
2017-07-07T14:01:33.048Z,1007.23
2017-07-07T14:02:43.357Z,1007.16
2017-07-07T14:03:53.647Z,1007.17
2017-07-07T14:05:03.931Z,1007.15
2017-07-07T14:06:14.192Z,1007.2
2017-07-07T14:07:24.161Z,1007.18
2017-07-07T14:08:34.453Z,1007.22
2017-07-07T14:09:44.468Z,1007.2
2017-07-07T14:10:54.744Z,1007.14
2017-07-07T14:12:04.655Z,1007.2
2017-07-07T14:13:14.636Z,1007.11
2017-07-07T14:14:24.619Z,1007.06